createdAt,value
2019-04-14T00:00:46.900Z,12.68
2019-04-14T00:01:39.113Z,12.00
2019-04-14T00:02:25.192Z,11.97
2019-04-14T00:03:12.986Z,12.75
2019-04-14T00:03:52.270Z,11.43
2019-04-14T00:04:42.229Z,12.88
2019-04-14T00:05:16.931Z,13.55
2019-04-14T00:05:53.938Z,12.80
2019-04-14T00:06:28.661Z,13.15
2019-04-14T00:07:03.599Z,12.40
2019-04-14T00:07:38.372Z,12.68
2019-04-14T00:08:13.314Z,13.68
2019-04-14T00:08:47.959Z,13.15
2019-04-14T00:09:22.641Z,13.43
2019-04-14T00:09:56.535Z,13.55
2019-04-14T00:10:31.095Z,13.20
2019-04-14T00:11:06.079Z,12.20
2019-04-14T00:11:44.460Z,13.48
2019-04-14T00:12:18.747Z,13.68
2019-04-14T00:12:53.499Z,13.72
2019-04-14T00:13:28.445Z,14.60
2019-04-14T00:14:03.135Z,13.85
2019-04-14T00:14:36.721Z,13.68
2019-04-14T00:15:25.677Z,13.53
2019-04-14T00:15:50.451Z,13.45
2019-04-14T00:16:24.826Z,12.45
2019-04-14T00:16:59.544Z,14.13
2019-04-14T00:17:33.285Z,14.38
2019-04-14T00:18:07.515Z,12.78
2019-04-14T00:18:41.155Z,13.43
2019-04-14T00:19:15.161Z,14.53
2019-04-14T00:19:48.722Z,13.30
2019-04-14T00:20:22.855Z,13.10
2019-04-14T00:20:57.508Z,12.28
2019-04-14T00:21:32.435Z,12.10
2019-04-14T00:22:07.224Z,12.85
2019-04-14T00:22:40.870Z,13.35
2019-04-14T00:23:15.153Z,13.00
2019-04-14T00:23:50.083Z,12.40
2019-04-14T00:24:24.835Z,13.25
2019-04-14T00:24:59.665Z,12.20
2019-04-14T00:25:33.365Z,12.63
2019-04-14T00:26:24.826Z,12.70
2019-04-14T00:26:59.533Z,13.03
2019-04-14T00:27:33.186Z,12.78
2019-04-14T00:28:07.357Z,12.20
2019-04-14T00:28:40.923Z,12.03
2019-04-14T00:29:15.192Z,11.85
2019-04-14T00:29:48.786Z,12.90
2019-04-14T00:30:23.226Z,13.03
2019-04-14T00:30:57.688Z,12.65
2019-04-14T00:31:32.749Z,12.78
2019-04-14T00:32:07.336Z,11.60
2019-04-14T00:32:48.741Z,13.53
2019-04-14T00:33:23.578Z,11.70
2019-04-14T00:33:59.188Z,13.08
2019-04-14T00:34:48.573Z,12.58
2019-04-14T00:35:31.970Z,13.90
2019-04-14T00:36:11.099Z,11.95
2019-04-14T00:37:03.431Z,11.60
2019-04-14T00:38:11.250Z,12.95
2019-04-14T00:38:48.055Z,11.18
2019-04-14T00:39:27.745Z,12.82
2019-04-14T00:40:08.369Z,12.25
2019-04-14T00:41:01.029Z,12.25
2019-04-14T00:41:50.438Z,13.93
2019-04-14T00:42:54.007Z,12.63
2019-04-14T00:43:59.228Z,12.43
2019-04-14T00:44:47.660Z,12.30
2019-04-14T00:45:47.956Z,13.15
2019-04-14T00:46:21.061Z,12.28
2019-04-14T00:47:00.628Z,12.37
2019-04-14T00:47:58.150Z,13.80
2019-04-14T00:48:27.556Z,12.55
2019-04-14T00:49:01.206Z,12.68
2019-04-14T00:49:35.393Z,12.70
2019-04-14T00:50:10.060Z,13.62
2019-04-14T00:50:43.740Z,12.82
2019-04-14T00:51:17.775Z,11.65
2019-04-14T00:51:51.666Z,13.43
2019-04-14T00:52:27.624Z,11.75
2019-04-14T00:53:01.383Z,12.13
2019-04-14T00:53:35.935Z,12.00
2019-04-14T00:54:10.874Z,12.15
2019-04-14T00:54:45.671Z,13.05
2019-04-14T00:55:20.273Z,12.15
2019-04-14T00:55:54.006Z,12.93
2019-04-14T00:56:27.939Z,13.08
2019-04-14T00:57:01.630Z,11.78
2019-04-14T00:57:35.537Z,12.58
2019-04-14T00:58:10.272Z,13.62
2019-04-14T00:58:45.282Z,12.25
2019-04-14T00:59:20.007Z,12.88
2019-04-14T00:59:53.699Z,12.10
2019-04-14T01:00:27.608Z,12.45
2019-04-14T01:01:01.237Z,12.65
2019-04-14T01:01:35.755Z,11.85
2019-04-14T01:02:09.892Z,11.78
2019-04-14T01:02:43.458Z,13.32
2019-04-14T01:03:17.758Z,12.50
2019-04-14T01:03:52.561Z,13.13
2019-04-14T01:04:27.284Z,12.50
2019-04-14T01:05:00.907Z,11.75
2019-04-14T01:05:35.713Z,11.80
2019-04-14T01:06:09.750Z,13.10
2019-04-14T01:06:44.856Z,12.75
2019-04-14T01:07:19.515Z,11.40
2019-04-14T01:07:54.345Z,11.50
2019-04-14T01:08:29.152Z,13.40
2019-04-14T01:09:04.281Z,11.25
2019-04-14T01:09:39.061Z,12.15
2019-04-14T01:10:12.751Z,12.30
2019-04-14T01:10:47.548Z,11.90
2019-04-14T01:11:21.089Z,12.60
2019-04-14T01:11:57.339Z,12.30
2019-04-14T01:12:32.058Z,12.73
2019-04-14T01:13:09.520Z,12.10
2019-04-14T01:13:41.831Z,12.28
2019-04-14T01:14:15.460Z,12.65
2019-04-14T01:14:49.586Z,13.15
2019-04-14T01:15:23.237Z,12.75
2019-04-14T01:16:03.741Z,12.53
2019-04-14T01:16:31.991Z,13.18
2019-04-14T01:17:06.935Z,11.88
2019-04-14T01:17:41.772Z,12.37
2019-04-14T01:18:16.743Z,11.83
2019-04-14T01:18:51.559Z,13.30
2019-04-14T01:19:25.104Z,12.50
2019-04-14T01:19:59.293Z,13.35
2019-04-14T01:20:33.982Z,12.98
2019-04-14T01:21:07.462Z,13.28
2019-04-14T01:21:41.345Z,12.05
2019-04-14T01:22:14.849Z,12.93
2019-04-14T01:22:48.882Z,13.10
2019-04-14T01:23:22.521Z,12.73
2019-04-14T01:23:56.762Z,13.53
2019-04-14T01:24:31.452Z,12.68
2019-04-14T01:25:06.430Z,12.05
2019-04-14T01:25:41.017Z,14.25
2019-04-14T01:26:15.935Z,12.53
2019-04-14T01:26:50.578Z,12.65
2019-04-14T01:27:25.552Z,12.28
2019-04-14T01:28:00.228Z,12.70
2019-04-14T01:28:33.973Z,12.35
2019-04-14T01:29:08.011Z,11.88
2019-04-14T01:29:42.648Z,12.73
2019-04-14T01:30:17.547Z,11.60
2019-04-14T01:30:52.196Z,12.65
2019-04-14T01:31:25.860Z,12.25
2019-04-14T01:32:00.185Z,11.05
2019-04-14T01:32:35.010Z,12.60
2019-04-14T01:33:09.648Z,12.98
2019-04-14T01:33:44.346Z,12.88
2019-04-14T01:34:18.029Z,12.65
2019-04-14T01:34:53.661Z,12.20
2019-04-14T01:35:27.099Z,12.23
2019-04-14T01:36:01.695Z,13.68
2019-04-14T01:36:36.592Z,13.18
2019-04-14T01:37:11.469Z,12.73
2019-04-14T01:37:46.358Z,12.33
2019-04-14T01:38:21.113Z,12.55
2019-04-14T01:38:55.736Z,12.65
2019-04-14T01:39:29.305Z,12.98
2019-04-14T01:40:03.315Z,13.18
2019-04-14T01:40:38.053Z,13.93
2019-04-14T01:41:12.824Z,13.80
2019-04-14T01:41:47.753Z,12.78
2019-04-14T01:42:22.387Z,12.88
2019-04-14T01:42:57.278Z,13.22
2019-04-14T01:43:32.124Z,12.73
2019-04-14T01:44:06.746Z,12.88
2019-04-14T01:44:41.616Z,12.90
2019-04-14T01:45:18.510Z,12.60
2019-04-14T01:46:03.442Z,12.50
2019-04-14T01:46:30.805Z,12.40
2019-04-14T01:47:03.124Z,12.15
2019-04-14T01:47:37.712Z,13.53
2019-04-14T01:48:12.641Z,12.33
2019-04-14T01:48:47.535Z,12.13
2019-04-14T01:49:22.450Z,12.55
2019-04-14T01:49:57.285Z,12.25
2019-04-14T01:50:40.947Z,13.40
2019-04-14T01:51:48.949Z,13.38
2019-04-14T01:52:44.138Z,12.73
2019-04-14T01:53:27.161Z,13.20
2019-04-14T01:54:12.558Z,11.80
2019-04-14T01:55:17.783Z,12.33
2019-04-14T01:56:10.222Z,12.78
2019-04-14T01:56:58.124Z,11.75
2019-04-14T01:57:41.487Z,11.35
2019-04-14T01:58:25.043Z,13.10
2019-04-14T01:58:58.644Z,12.15
2019-04-14T01:59:32.666Z,13.53
2019-04-14T02:00:23.212Z,13.00
2019-04-14T02:01:08.313Z,12.95
2019-04-14T02:01:42.282Z,12.40
2019-04-14T02:02:19.007Z,13.15
2019-04-14T02:02:53.055Z,13.15
2019-04-14T02:03:26.661Z,12.68
2019-04-14T02:04:00.667Z,12.47
2019-04-14T02:04:35.500Z,14.23
2019-04-14T02:05:10.250Z,13.22
2019-04-14T02:05:43.902Z,13.88
2019-04-14T02:06:17.988Z,12.80
2019-04-14T02:06:52.695Z,13.38
2019-04-14T02:07:27.631Z,13.18
2019-04-14T02:08:02.362Z,11.88
2019-04-14T02:08:37.137Z,13.30
2019-04-14T02:09:12.088Z,12.60
2019-04-14T02:09:46.852Z,12.82
2019-04-14T02:10:21.633Z,13.95
2019-04-14T02:10:56.474Z,13.53
2019-04-14T02:11:31.385Z,12.28
2019-04-14T02:12:06.165Z,14.13
2019-04-14T02:12:40.901Z,13.38
2019-04-14T02:13:15.665Z,14.35
2019-04-14T02:13:50.710Z,14.90
2019-04-14T02:14:25.522Z,12.60
2019-04-14T02:15:00.236Z,14.43
2019-04-14T02:15:35.116Z,12.82
2019-04-14T02:16:21.017Z,13.70
2019-04-14T02:16:48.689Z,13.38
2019-04-14T02:17:19.858Z,12.00
2019-04-14T02:17:54.668Z,13.35
2019-04-14T02:18:29.564Z,13.65
2019-04-14T02:19:04.500Z,12.00
2019-04-14T02:19:39.285Z,13.90
2019-04-14T02:20:14.160Z,12.78
2019-04-14T02:20:48.938Z,12.55
2019-04-14T02:21:23.711Z,13.32
2019-04-14T02:21:58.479Z,13.93
2019-04-14T02:22:33.347Z,13.98
2019-04-14T02:23:08.203Z,14.20
2019-04-14T02:23:43.216Z,13.62
2019-04-14T02:24:17.842Z,13.50
2019-04-14T02:24:52.717Z,14.23
2019-04-14T02:25:27.398Z,13.30
2019-04-14T02:26:02.159Z,12.43
2019-04-14T02:26:37.223Z,13.22
2019-04-14T02:27:12.076Z,13.62
2019-04-14T02:27:45.625Z,13.03
2019-04-14T02:28:19.891Z,13.45
2019-04-14T02:28:54.888Z,12.45
2019-04-14T02:29:29.663Z,13.28
2019-04-14T02:30:06.089Z,13.60
2019-04-14T02:30:47.007Z,12.80
2019-04-14T02:31:29.776Z,14.75
2019-04-14T02:32:17.580Z,13.83
2019-04-14T02:32:54.902Z,12.33
2019-04-14T02:33:29.541Z,13.25
2019-04-14T02:34:00.687Z,13.25
2019-04-14T02:34:40.918Z,12.93
2019-04-14T02:35:11.945Z,12.95
2019-04-14T02:35:58.937Z,14.20
2019-04-14T02:37:04.764Z,14.78
2019-04-14T02:37:34.476Z,13.15
2019-04-14T02:38:11.985Z,13.18
2019-04-14T02:39:22.486Z,13.43
2019-04-14T02:39:54.284Z,14.05
2019-04-14T02:41:50.796Z,13.38
2019-04-14T02:42:46.474Z,13.78
2019-04-14T02:43:30.262Z,13.38
2019-04-14T02:44:04.651Z,13.13
2019-04-14T02:44:39.991Z,14.40
2019-04-14T02:45:08.896Z,13.55
2019-04-14T02:46:28.958Z,14.83
2019-04-14T02:47:00.310Z,13.83
2019-04-14T02:48:20.444Z,13.58
2019-04-14T02:48:50.746Z,13.38
2019-04-14T02:49:11.160Z,14.45
2019-04-14T02:49:51.034Z,14.75
2019-04-14T02:50:23.249Z,13.70
2019-04-14T02:51:05.804Z,13.98
2019-04-14T02:51:34.945Z,13.60
2019-04-14T02:52:11.926Z,14.33
2019-04-14T02:53:23.788Z,13.85
2019-04-14T02:53:59.433Z,15.18
2019-04-14T02:54:44.935Z,13.43
2019-04-14T02:55:05.261Z,13.03
2019-04-14T02:55:54.240Z,14.78
2019-04-14T02:56:21.438Z,14.07
2019-04-14T02:57:03.652Z,15.78
2019-04-14T02:57:30.947Z,13.83
2019-04-14T02:58:46.278Z,15.00
2019-04-14T02:59:15.227Z,13.10
2019-04-14T02:59:52.349Z,15.15
2019-04-14T03:01:38.522Z,13.28
2019-04-14T03:02:24.702Z,13.38
2019-04-14T03:02:44.632Z,14.18
2019-04-14T03:03:28.211Z,13.93
2019-04-14T03:05:01.858Z,15.03
2019-04-14T03:05:44.386Z,14.28
2019-04-14T03:06:56.458Z,14.07
2019-04-14T03:07:30.706Z,13.50
2019-04-14T03:08:06.639Z,15.55
2019-04-14T03:08:49.039Z,14.45
2019-04-14T03:09:24.660Z,15.03
2019-04-14T03:09:50.156Z,13.72
2019-04-14T03:10:25.880Z,15.50
2019-04-14T03:11:02.896Z,14.07
2019-04-14T03:11:43.931Z,15.63
2019-04-14T03:12:14.563Z,14.63
2019-04-14T03:12:46.589Z,15.95
2019-04-14T03:13:27.137Z,14.78
2019-04-14T03:14:03.209Z,14.93
2019-04-14T03:14:40.363Z,15.48
2019-04-14T03:16:23.326Z,13.60
2019-04-14T03:17:14.667Z,14.15
2019-04-14T03:18:10.718Z,14.87
2019-04-14T03:20:07.183Z,15.58
2019-04-14T03:20:55.053Z,13.55
2019-04-14T03:22:43.846Z,13.45
2019-04-14T03:23:34.928Z,14.03
2019-04-14T03:24:27.478Z,13.40
2019-04-14T03:25:15.268Z,14.35
2019-04-14T03:26:04.835Z,13.80
2019-04-14T03:27:01.301Z,13.65
2019-04-14T03:27:39.934Z,13.70
2019-04-14T03:28:28.338Z,14.83
2019-04-14T03:28:58.943Z,13.85
2019-04-14T03:30:51.702Z,13.62
2019-04-14T03:32:23.471Z,13.20
2019-04-14T03:35:35.148Z,14.20
2019-04-14T03:36:30.476Z,13.93
2019-04-14T03:39:17.522Z,13.90
2019-04-14T03:40:28.120Z,14.63
2019-04-14T03:41:14.090Z,14.40
2019-04-14T03:42:26.890Z,15.38
2019-04-14T03:43:05.614Z,14.15
2019-04-14T03:43:59.582Z,13.53
2019-04-14T03:44:39.292Z,13.95
2019-04-14T03:45:09.400Z,14.65
2019-04-14T03:46:02.612Z,13.98
2019-04-14T03:46:37.418Z,15.18
2019-04-14T03:46:57.118Z,14.85
2019-04-14T03:47:27.611Z,14.85
2019-04-14T03:48:40.060Z,15.85
2019-04-14T03:49:32.264Z,14.90
2019-04-14T03:50:23.191Z,15.03
2019-04-14T03:51:05.860Z,14.23
2019-04-14T03:52:02.473Z,15.50
2019-04-14T03:52:35.029Z,15.05
2019-04-14T03:52:53.220Z,14.45
2019-04-14T03:53:54.502Z,14.60
2019-04-14T03:54:30.063Z,14.23
2019-04-14T03:54:58.547Z,15.10
2019-04-14T03:55:41.686Z,14.13
2019-04-14T03:56:27.395Z,14.87
2019-04-14T03:57:01.835Z,14.30
2019-04-14T03:57:36.614Z,14.35
2019-04-14T03:58:11.492Z,14.63
2019-04-14T03:58:46.454Z,13.62
2019-04-14T03:59:20.262Z,14.70
2019-04-14T03:59:54.336Z,14.28
2019-04-14T04:00:27.826Z,14.18
2019-04-14T04:01:01.898Z,16.00
2019-04-14T04:01:36.733Z,14.40
2019-04-14T04:02:11.722Z,14.23
2019-04-14T04:02:46.611Z,14.60
2019-04-14T04:03:20.268Z,13.78
2019-04-14T04:03:54.230Z,14.53
2019-04-14T04:04:29.335Z,13.93
2019-04-14T04:05:04.143Z,15.65
2019-04-14T04:05:37.678Z,15.80
2019-04-14T04:06:11.794Z,16.20
2019-04-14T04:06:46.390Z,14.15
2019-04-14T04:07:21.340Z,14.33
2019-04-14T04:07:55.948Z,14.70
2019-04-14T04:08:29.795Z,14.60
2019-04-14T04:09:04.113Z,15.38
2019-04-14T04:09:41.747Z,14.53
2019-04-14T04:10:17.981Z,14.10
2019-04-14T04:10:51.562Z,15.60
2019-04-14T04:11:25.809Z,15.48
2019-04-14T04:12:00.575Z,15.03
2019-04-14T04:12:35.731Z,13.38
2019-04-14T04:13:10.451Z,14.70
2019-04-14T04:13:44.151Z,16.25
2019-04-14T04:14:18.157Z,14.95
2019-04-14T04:14:53.147Z,14.45
2019-04-14T04:15:27.801Z,14.98
2019-04-14T04:16:35.874Z,14.15
2019-04-14T04:17:31.808Z,14.45
2019-04-14T04:18:11.308Z,13.00
2019-04-14T04:18:56.467Z,13.68
2019-04-14T04:19:32.324Z,13.72
2019-04-14T04:20:23.964Z,15.28
2019-04-14T04:21:20.609Z,15.03
2019-04-14T04:22:23.597Z,14.58
2019-04-14T04:23:16.252Z,13.45
2019-04-14T04:23:55.413Z,14.07
2019-04-14T04:24:39.149Z,14.50
2019-04-14T04:25:18.236Z,13.80
2019-04-14T04:26:10.946Z,14.40
2019-04-14T04:27:06.924Z,14.10
2019-04-14T04:27:54.698Z,14.85
2019-04-14T04:28:47.105Z,14.23
2019-04-14T04:29:42.425Z,14.07
2019-04-14T04:30:31.783Z,14.00
2019-04-14T04:31:10.810Z,13.93
2019-04-14T04:32:12.600Z,14.18
2019-04-14T04:33:15.520Z,14.87
2019-04-14T04:34:05.410Z,14.38
2019-04-14T04:35:15.242Z,13.88
2019-04-14T04:35:52.821Z,13.75
2019-04-14T04:36:31.571Z,14.87
2019-04-14T04:37:12.811Z,15.13
2019-04-14T04:38:11.802Z,14.00
2019-04-14T04:38:50.927Z,14.40
2019-04-14T04:39:28.107Z,15.53
2019-04-14T04:40:05.489Z,14.43
2019-04-14T04:40:39.740Z,15.58
2019-04-14T04:41:14.617Z,15.28
2019-04-14T04:41:49.337Z,16.17
2019-04-14T04:42:24.268Z,14.75
2019-04-14T04:42:58.988Z,15.43
2019-04-14T04:43:32.537Z,14.85
2019-04-14T04:44:07.127Z,15.90
2019-04-14T04:44:42.044Z,16.65
2019-04-14T04:45:16.999Z,15.88
2019-04-14T04:45:51.677Z,16.42
2019-04-14T04:46:26.508Z,14.30
2019-04-14T04:47:01.142Z,14.83
2019-04-14T04:47:34.770Z,16.30
2019-04-14T04:48:08.947Z,16.42
2019-04-14T04:48:43.691Z,15.88
2019-04-14T04:49:21.710Z,15.55
2019-04-14T04:49:53.349Z,17.12
2019-04-14T04:50:28.178Z,14.75
2019-04-14T04:51:02.857Z,16.60
2019-04-14T04:51:37.749Z,15.32
2019-04-14T04:52:13.963Z,15.43
2019-04-14T04:52:47.522Z,15.05
2019-04-14T04:53:22.133Z,15.18
2019-04-14T04:53:57.006Z,16.65
2019-04-14T04:54:30.677Z,16.65
2019-04-14T04:55:04.635Z,14.30
2019-04-14T04:55:38.170Z,16.77
2019-04-14T04:56:12.178Z,17.55
2019-04-14T04:56:45.846Z,15.50
2019-04-14T04:57:19.912Z,16.67
2019-04-14T04:57:54.540Z,15.10
2019-04-14T04:58:28.410Z,16.07
2019-04-14T04:59:03.246Z,16.93
2019-04-14T04:59:36.872Z,15.75
2019-04-14T05:00:11.384Z,15.30
2019-04-14T05:00:48.494Z,16.60
2019-04-14T05:01:20.964Z,16.82
2019-04-14T05:01:55.825Z,15.58
2019-04-14T05:02:30.722Z,16.00
2019-04-14T05:03:05.661Z,16.42
2019-04-14T05:03:40.611Z,15.58
2019-04-14T05:04:15.343Z,16.48
2019-04-14T05:04:49.059Z,19.17
2019-04-14T05:05:41.096Z,14.87
2019-04-14T05:06:32.922Z,15.98
2019-04-14T05:07:07.634Z,17.00
2019-04-14T05:07:42.438Z,16.27
2019-04-14T05:08:17.324Z,16.70
2019-04-14T05:08:52.542Z,16.90
2019-04-14T05:09:44.815Z,17.50
2019-04-14T05:10:29.211Z,17.25
2019-04-14T05:11:22.982Z,16.85
2019-04-14T05:12:34.884Z,16.82
2019-04-14T05:13:33.575Z,16.17
2019-04-14T05:14:13.046Z,16.85
2019-04-14T05:14:52.347Z,16.12
2019-04-14T05:15:57.522Z,15.53
2019-04-14T05:16:32.393Z,17.27
2019-04-14T05:17:06.071Z,16.48
2019-04-14T05:17:40.949Z,16.55
2019-04-14T05:18:20.024Z,17.15
2019-04-14T05:18:53.814Z,15.43
2019-04-14T05:19:32.889Z,17.15
2019-04-14T05:20:03.188Z,15.40
2019-04-14T05:20:37.774Z,17.75
2019-04-14T05:21:12.629Z,17.45
2019-04-14T05:21:47.398Z,17.45
2019-04-14T05:22:22.262Z,18.05
2019-04-14T05:22:57.172Z,18.37
2019-04-14T05:23:32.002Z,16.57
2019-04-14T05:24:06.991Z,17.10
2019-04-14T05:24:41.755Z,17.30
2019-04-14T05:25:15.283Z,17.05
2019-04-14T05:25:49.521Z,16.48
2019-04-14T05:26:24.400Z,17.98
2019-04-14T05:26:59.160Z,17.02
2019-04-14T05:27:34.066Z,18.00
2019-04-14T05:28:09.011Z,16.70
2019-04-14T05:28:43.800Z,17.52
2019-04-14T05:29:17.377Z,16.48
2019-04-14T05:29:51.576Z,16.60
2019-04-14T05:30:26.342Z,16.90
2019-04-14T05:31:01.140Z,16.40
2019-04-14T05:31:35.839Z,17.57
2019-04-14T05:32:10.817Z,16.97
2019-04-14T05:32:45.451Z,17.30
2019-04-14T05:33:19.167Z,17.57
2019-04-14T05:33:53.304Z,16.65
2019-04-14T05:34:28.267Z,16.12
2019-04-14T05:35:03.051Z,16.80
2019-04-14T05:35:37.942Z,17.15
2019-04-14T05:36:12.861Z,16.27
2019-04-14T05:36:47.630Z,17.48
2019-04-14T05:37:22.517Z,16.35
2019-04-14T05:37:57.293Z,17.40
2019-04-14T05:38:32.596Z,17.25
2019-04-14T05:39:06.838Z,17.55
2019-04-14T05:39:40.444Z,18.05
2019-04-14T05:40:14.536Z,16.93
2019-04-14T05:40:48.211Z,16.23
2019-04-14T05:41:22.268Z,18.17
2019-04-14T05:42:04.986Z,19.05
2019-04-14T05:42:31.910Z,18.20
2019-04-14T05:43:06.733Z,16.97
2019-04-14T05:43:48.157Z,16.73
2019-04-14T05:44:16.467Z,16.65
2019-04-14T05:44:50.109Z,18.00
2019-04-14T05:45:24.093Z,16.62
2019-04-14T05:45:57.678Z,17.60
2019-04-14T05:46:31.916Z,16.37
2019-04-14T05:47:06.426Z,15.15
2019-04-14T05:47:41.377Z,17.60
2019-04-14T05:48:16.002Z,16.70
2019-04-14T05:48:49.718Z,16.95
2019-04-14T05:49:31.523Z,17.17
2019-04-14T05:49:59.345Z,17.15
2019-04-14T05:50:33.530Z,17.73
2019-04-14T05:51:07.107Z,16.17
2019-04-14T05:51:41.566Z,17.45
2019-04-14T05:52:16.281Z,15.40
2019-04-14T05:52:49.937Z,16.48
2019-04-14T05:53:24.044Z,15.83
2019-04-14T05:53:58.757Z,16.57
2019-04-14T05:54:33.858Z,17.52
2019-04-14T05:55:08.688Z,17.45
2019-04-14T05:55:42.367Z,16.02
2019-04-14T05:56:16.440Z,16.27
2019-04-14T05:56:51.500Z,16.95
2019-04-14T05:57:26.235Z,15.63
2019-04-14T05:58:01.320Z,15.63
2019-04-14T05:58:36.088Z,14.78
2019-04-14T05:59:09.861Z,14.53
2019-04-14T05:59:44.054Z,16.10
2019-04-14T06:00:19.214Z,16.12
2019-04-14T06:00:53.378Z,16.07
2019-04-14T06:01:27.108Z,15.50
2019-04-14T06:02:02.599Z,14.83
2019-04-14T06:02:37.449Z,15.75
2019-04-14T06:03:12.337Z,17.00
2019-04-14T06:03:45.986Z,16.25
2019-04-14T06:04:20.042Z,15.98
2019-04-14T06:04:54.906Z,15.80
2019-04-14T06:05:29.633Z,16.05
2019-04-14T06:06:03.354Z,17.87
2019-04-14T06:06:36.911Z,16.27
2019-04-14T06:07:10.343Z,15.45
2019-04-14T06:07:43.845Z,17.02
2019-04-14T06:08:17.318Z,16.60
2019-04-14T06:08:50.745Z,15.95
2019-04-14T06:09:24.237Z,15.68
2019-04-14T06:09:59.594Z,15.78
2019-04-14T06:10:33.518Z,15.03
2019-04-14T06:11:07.007Z,16.00
2019-04-14T06:11:40.486Z,15.25
2019-04-14T06:12:14.000Z,15.18
2019-04-14T06:12:47.501Z,15.32
2019-04-14T06:13:20.988Z,15.60
2019-04-14T06:13:54.559Z,14.58
2019-04-14T06:14:28.047Z,17.10
2019-04-14T06:15:01.539Z,14.90
2019-04-14T06:15:35.463Z,14.78
2019-04-14T06:16:08.953Z,15.20
2019-04-14T06:16:42.450Z,14.23
2019-04-14T06:17:15.978Z,13.18
2019-04-14T06:17:49.478Z,13.50
2019-04-14T06:18:22.958Z,14.23
2019-04-14T06:18:56.443Z,15.10
2019-04-14T06:19:36.980Z,13.75
2019-04-14T06:20:05.274Z,14.73
2019-04-14T06:20:38.770Z,15.55
2019-04-14T06:21:12.256Z,15.50
2019-04-14T06:21:45.946Z,14.63
2019-04-14T06:22:19.455Z,15.83
2019-04-14T06:22:52.931Z,15.20
2019-04-14T06:23:26.428Z,17.05
2019-04-14T06:23:59.907Z,17.37
2019-04-14T06:24:33.439Z,16.57
2019-04-14T06:25:07.014Z,17.00
2019-04-14T06:25:40.751Z,16.85
2019-04-14T06:26:14.386Z,17.67
2019-04-14T06:26:47.941Z,17.12
2019-04-14T06:27:21.474Z,16.90
2019-04-14T06:27:54.970Z,18.00
2019-04-14T06:28:28.497Z,17.30
2019-04-14T06:29:02.003Z,17.57
2019-04-14T06:29:35.496Z,17.35
2019-04-14T06:30:23.619Z,17.55
2019-04-14T06:31:25.593Z,17.10
2019-04-14T06:32:12.606Z,15.18
2019-04-14T06:32:46.227Z,16.20
2019-04-14T06:33:37.644Z,16.85
2019-04-14T06:34:30.334Z,16.93
2019-04-14T06:35:22.045Z,16.55
2019-04-14T06:36:10.007Z,16.52
2019-04-14T06:36:52.361Z,16.67
2019-04-14T06:37:35.611Z,17.87
2019-04-14T06:38:21.478Z,18.67
2019-04-14T06:39:01.187Z,17.65
2019-04-14T06:39:38.121Z,18.00
2019-04-14T06:40:11.736Z,19.50
2019-04-14T06:40:49.141Z,17.75
2019-04-14T06:41:22.550Z,18.00
2019-04-14T06:41:56.061Z,17.27
2019-04-14T06:42:29.537Z,18.23
2019-04-14T06:43:03.039Z,19.55
2019-04-14T06:43:48.079Z,18.52
2019-04-14T06:44:11.737Z,16.50
2019-04-14T06:44:45.268Z,18.00
2019-04-14T06:45:18.711Z,17.27
2019-04-14T06:45:52.203Z,18.40
2019-04-14T06:46:25.768Z,18.40
2019-04-14T06:46:59.262Z,17.85
2019-04-14T06:47:32.814Z,18.62
2019-04-14T06:48:06.761Z,17.77
2019-04-14T06:48:40.286Z,17.67
2019-04-14T06:49:13.804Z,17.23
2019-04-14T06:49:49.038Z,16.82
2019-04-14T06:50:22.511Z,16.20
2019-04-14T06:50:56.051Z,16.30
2019-04-14T06:51:29.535Z,16.17
2019-04-14T06:52:03.016Z,15.45
2019-04-14T06:52:36.515Z,17.37
2019-04-14T06:53:10.012Z,16.30
2019-04-14T06:53:43.493Z,17.73
2019-04-14T06:54:16.996Z,16.10
2019-04-14T06:54:50.492Z,14.83
2019-04-14T06:55:23.992Z,15.83
2019-04-14T06:55:57.519Z,16.02
2019-04-14T06:56:31.040Z,15.35
2019-04-14T06:57:04.533Z,14.98
2019-04-14T06:57:38.049Z,16.25
2019-04-14T06:58:11.454Z,16.40
2019-04-14T06:58:44.937Z,17.73
2019-04-14T06:59:18.426Z,15.75
2019-04-14T06:59:51.909Z,15.55
2019-04-14T07:00:25.470Z,15.50
2019-04-14T07:00:58.975Z,15.45
2019-04-14T07:01:32.626Z,15.90
2019-04-14T07:02:08.569Z,15.32
2019-04-14T07:02:41.340Z,15.03
2019-04-14T07:03:14.736Z,15.68
2019-04-14T07:03:48.266Z,15.70
2019-04-14T07:04:21.761Z,16.27
2019-04-14T07:04:55.254Z,17.05
2019-04-14T07:05:28.767Z,15.80
2019-04-14T07:06:02.185Z,16.60
2019-04-14T07:06:35.666Z,16.80
2019-04-14T07:07:09.178Z,15.63
2019-04-14T07:07:42.674Z,15.55
2019-04-14T07:08:16.188Z,15.05
2019-04-14T07:08:49.698Z,15.68
2019-04-14T07:09:23.199Z,14.50
2019-04-14T07:09:56.651Z,16.10
2019-04-14T07:10:30.209Z,14.58
2019-04-14T07:11:03.715Z,14.87
2019-04-14T07:11:37.130Z,15.90
2019-04-14T07:12:10.771Z,15.80
2019-04-14T07:12:44.439Z,16.40
2019-04-14T07:13:19.587Z,15.25
2019-04-14T07:13:53.179Z,15.80
2019-04-14T07:14:26.693Z,15.03
2019-04-14T07:15:00.370Z,14.47
2019-04-14T07:15:33.863Z,14.93
2019-04-14T07:16:08.262Z,15.10
2019-04-14T07:16:41.749Z,15.20
2019-04-14T07:17:15.252Z,16.67
2019-04-14T07:17:48.881Z,15.93
2019-04-14T07:18:22.357Z,15.23
2019-04-14T07:18:55.843Z,17.02
2019-04-14T07:19:29.341Z,16.15
2019-04-14T07:20:03.079Z,15.65
2019-04-14T07:20:36.561Z,15.45
2019-04-14T07:21:10.043Z,14.98
2019-04-14T07:21:43.553Z,15.25
2019-04-14T07:22:17.046Z,16.10
2019-04-14T07:22:50.555Z,16.20
2019-04-14T07:23:24.058Z,15.53
2019-04-14T07:23:57.562Z,14.80
2019-04-14T07:24:31.046Z,15.63
2019-04-14T07:25:04.789Z,16.05
2019-04-14T07:25:38.207Z,14.70
2019-04-14T07:26:11.708Z,13.90
2019-04-14T07:26:45.198Z,15.23
2019-04-14T07:27:18.708Z,15.80
2019-04-14T07:27:52.329Z,14.40
2019-04-14T07:28:26.803Z,14.10
2019-04-14T07:29:00.300Z,13.80
2019-04-14T07:29:39.482Z,13.80
2019-04-14T07:30:31.034Z,14.20
2019-04-14T07:31:12.865Z,14.70
2019-04-14T07:32:17.682Z,14.73
2019-04-14T07:33:07.752Z,13.62
2019-04-14T07:34:05.304Z,12.45
2019-04-14T07:34:57.731Z,13.35
2019-04-14T07:35:45.878Z,12.40
2019-04-14T07:36:41.395Z,13.38
2019-04-14T07:37:32.714Z,13.00
2019-04-14T07:38:13.702Z,13.35
2019-04-14T07:38:58.527Z,13.20
2019-04-14T07:39:38.845Z,14.23
2019-04-14T07:40:30.982Z,14.00
2019-04-14T07:41:35.697Z,14.70
2019-04-14T07:42:12.681Z,13.22
2019-04-14T07:43:02.966Z,13.15
2019-04-14T07:43:59.471Z,12.47
2019-04-14T07:44:47.729Z,13.98
2019-04-14T07:45:32.372Z,14.10
2019-04-14T07:46:10.950Z,14.07
2019-04-14T07:46:57.445Z,13.80
2019-04-14T07:47:45.810Z,13.85
2019-04-14T07:48:29.194Z,14.95
2019-04-14T07:49:24.791Z,15.03
2019-04-14T07:50:20.671Z,15.00
2019-04-14T07:51:11.891Z,14.40
2019-04-14T07:52:07.420Z,14.38
2019-04-14T07:53:03.021Z,15.05
2019-04-14T07:53:45.306Z,14.58
2019-04-14T07:54:41.153Z,15.10
2019-04-14T07:55:26.219Z,14.35
2019-04-14T07:56:21.709Z,14.80
2019-04-14T07:57:14.281Z,15.10
2019-04-14T07:58:00.266Z,14.75
2019-04-14T07:58:58.698Z,15.85
2019-04-14T07:59:53.365Z,14.87
2019-04-14T08:00:32.941Z,13.70
2019-04-14T08:01:10.230Z,15.72
2019-04-14T08:01:55.796Z,15.60
2019-04-14T08:02:34.134Z,14.33
2019-04-14T08:03:27.146Z,15.75
2019-04-14T08:04:05.603Z,14.90
2019-04-14T08:04:58.271Z,14.15
2019-04-14T08:05:34.834Z,14.47
2019-04-14T08:06:08.338Z,15.95
2019-04-14T08:06:45.502Z,14.63
2019-04-14T08:07:18.911Z,15.70
2019-04-14T08:07:52.413Z,14.68
2019-04-14T08:08:26.090Z,15.28
2019-04-14T08:08:59.997Z,16.12
2019-04-14T08:09:33.478Z,16.00
2019-04-14T08:10:07.571Z,15.30
2019-04-14T08:10:41.104Z,14.30
2019-04-14T08:11:15.128Z,14.63
2019-04-14T08:11:49.253Z,15.95
2019-04-14T08:12:22.822Z,15.38
2019-04-14T08:12:56.593Z,16.00
2019-04-14T08:13:30.243Z,16.67
2019-04-14T08:14:05.123Z,16.57
2019-04-14T08:14:39.134Z,15.90
2019-04-14T08:15:13.207Z,16.32
2019-04-14T08:15:46.812Z,15.95
2019-04-14T08:16:20.545Z,15.65
2019-04-14T08:16:54.212Z,15.98
2019-04-14T08:17:28.267Z,15.32
2019-04-14T08:18:01.938Z,15.20
2019-04-14T08:18:35.641Z,15.23
2019-04-14T08:19:09.806Z,16.07
2019-04-14T08:19:43.641Z,14.90
2019-04-14T08:20:27.314Z,15.55
2019-04-14T08:20:52.977Z,15.38
2019-04-14T08:21:26.758Z,16.45
2019-04-14T08:22:00.345Z,16.70
2019-04-14T08:22:34.098Z,16.48